KDFI/DFI METAR and TAF weather

Enter ICAO airport designator
Station Type Date Time Source
KDFI METAR 2020/01/22 11:53 UTC NOAA

KDFI 221153Z AUTO 19004KT 10SM CLR M07/M10 A3036 RMK AO2 SLP293 T10721100 11056 21072 56008 $


Station Type Date Time Source
KDFI Decoded METAR 2020/01/22 11:53 UTC NOAA

DEFIANCE MEMORIAL AIRPORT, OH, United States (KDFI) 41-20N 84-26W 219M
Jan 22, 2020 - 06:53 AM EST / 2020.01.22 1153 UTC
Wind: from the S (190 degrees) at 5 MPH (4 KT):0
Visibility: 10 mile(s):0
Sky conditions: clear
Temperature: 19.0 F (-7.2 C)
Windchill: 12 F (-11 C):1
Dew Point: 14.0 F (-10.0 C)
Relative Humidity: 80%
Pressure (altimeter): 30.36 in. Hg (1028 hPa)
Pressure tendency: 0.02 inches (0.8 hPa) lower than three hours ago
ob: KDFI 221153Z AUTO 19004KT 10SM CLR M07/M10 A3036 RMK AO2 SLP293 T10721100 11056 21072 56008
cycle: 12

Station Type Date Time Source
KDFI TAF UTC NOAA

Error!

Example: see airport list